Time;durP1;ratioP1;P1;durP2;ratioP2;P2;SDS_P1;SDS_P2;PMS_P1;PMS_P2;Temp;Humidity;BMP_temperature;BMP_pressure;BME280_temperature;BME280_humidity;BME280_pressure;Samples;Min_cycle;Max_cycle;Signal;HPM_P1;HPM_P2
2022/05/25 00:00:26;;;;;;;3.37;1.90;;;15.10;99.90;;;;;;6281654;22;20175;-87
2022/05/25 00:02:54;;;;;;;3.83;2.00;;;15.00;99.90;;;;;;6281277;22;20161;-88
2022/05/25 00:05:20;;;;;;;4.37;1.97;;;15.00;99.90;;;;;;6281492;22;20156;-88
2022/05/25 00:07:47;;;;;;;7.30;2.00;;;15.00;99.90;;;;;;6280898;22;20243;-88
2022/05/25 00:10:13;;;;;;;3.47;1.70;;;15.10;99.90;;;;;;6281226;22;20152;-87
2022/05/25 00:12:40;;;;;;;4.07;1.57;;;15.00;99.90;;;;;;6281272;22;20265;-89
2022/05/25 00:15:09;;;;;;;4.33;2.60;;;14.70;99.90;;;;;;6280609;22;20200;-88
2022/05/25 00:17:35;;;;;;;3.20;1.83;;;14.50;99.90;;;;;;6281215;22;20151;-87
2022/05/25 00:20:01;;;;;;;4.80;1.70;;;14.50;99.90;;;;;;6281181;22;20576;-87
2022/05/25 00:22:37;;;;;;;6.73;1.80;;;14.40;99.90;;;;;;6281069;22;20234;-89
2022/05/25 00:25:02;;;;;;;4.07;1.70;;;14.40;99.90;;;;;;6280953;22;20156;-88
2022/05/25 00:27:28;;;;;;;3.87;1.80;;;14.50;99.90;;;;;;6280991;22;20152;-87
2022/05/25 00:29:54;;;;;;;3.30;1.73;;;14.50;99.90;;;;;;6281028;22;20239;-88
2022/05/25 00:32:21;;;;;;;2.50;1.73;;;14.60;99.90;;;;;;6280869;22;20195;-87
2022/05/25 00:34:46;;;;;;;5.80;1.97;;;14.60;99.90;;;;;;6280137;22;20213;-89
2022/05/25 00:37:12;;;;;;;6.43;1.70;;;14.60;99.90;;;;;;6280495;22;20576;-89
2022/05/25 00:39:39;;;;;;;4.13;1.90;;;14.50;99.90;;;;;;6281076;22;20149;-87
2022/05/25 00:42:05;;;;;;;2.03;1.83;;;14.60;99.90;;;;;;6280951;22;20192;-87
2022/05/25 00:44:31;;;;;;;5.07;2.23;;;14.60;99.90;;;;;;6280536;22;20476;-87
2022/05/25 00:46:56;;;;;;;6.33;2.07;;;14.60;99.90;;;;;;6280909;22;20210;-87
2022/05/25 00:49:26;;;;;;;4.63;2.10;;;14.60;99.90;;;;;;6280610;22;20159;-87
2022/05/25 00:52:10;;;;;;;4.70;2.07;;;14.60;99.90;;;;;;6280817;22;20164;-90
2022/05/25 00:54:53;;;;;;;6.00;1.90;;;14.60;99.90;;;;;;6280708;22;20216;-89
2022/05/25 00:57:31;;;;;;;4.83;2.17;;;14.50;99.90;;;;;;6280457;22;20146;-87
2022/05/25 01:00:13;;;;;;;3.93;2.20;;;14.40;99.90;;;;;;6280786;22;20155;-88
2022/05/25 01:02:46;;;;;;;4.53;2.77;;;14.30;99.90;;;;;;6280757;22;20567;-89
2022/05/25 01:05:15;;;;;;;4.03;2.27;;;14.30;99.90;;;;;;6280254;22;20150;-87
2022/05/25 01:08:18;;;;;;;6.37;2.57;;;14.20;99.90;;;;;;6281133;22;20149;-87
2022/05/25 01:11:05;;;;;;;4.97;2.83;;;14.10;99.90;;;;;;6280698;22;20154;-87
2022/05/25 01:13:37;;;;;;;5.23;1.80;;;14.10;99.90;;;;;;6280894;22;20182;-87
2022/05/25 01:16:26;;;;;;;4.53;2.33;;;14.10;99.90;;;;;;6280252;22;20185;-89
2022/05/25 01:18:58;;;;;;;7.13;2.00;;;14.00;99.90;;;;;;6280445;22;20579;-88
2022/05/25 01:21:32;;;;;;;2.40;1.90;;;14.00;99.90;;;;;;6280800;22;20155;-87
2022/05/25 01:24:26;;;;;;;3.20;2.10;;;13.80;99.90;;;;;;6280788;22;20651;-87
2022/05/25 01:27:26;;;;;;;12.10;2.20;;;13.80;99.90;;;;;;6280317;22;20176;-87
2022/05/25 01:30:00;;;;;;;6.27;2.30;;;13.80;99.90;;;;;;6280435;22;20246;-87
2022/05/25 01:32:34;;;;;;;3.83;1.77;;;13.80;99.90;;;;;;6280522;22;20571;-89
2022/05/25 01:35:20;;;;;;;9.47;3.03;;;13.90;99.90;;;;;;6279894;22;20177;-89
2022/05/25 01:37:55;;;;;;;8.40;2.60;;;13.90;99.90;;;;;;6280135;22;20226;-89
2022/05/25 01:40:28;;;;;;;6.57;2.73;;;13.80;99.90;;;;;;6280358;22;20149;-89
2022/05/25 01:43:19;;;;;;;4.53;2.47;;;13.80;99.90;;;;;;6280675;22;20163;-89
2022/05/25 01:45:53;;;;;;;5.07;2.40;;;13.80;99.90;;;;;;6279957;22;20475;-89
2022/05/25 01:48:21;;;;;;;10.20;2.60;;;13.80;99.90;;;;;;6279991;22;20155;-87
2022/05/25 01:50:53;;;;;;;5.23;2.00;;;13.80;99.90;;;;;;6280606;22;20157;-89
2022/05/25 01:53:23;;;;;;;4.97;2.00;;;13.90;99.90;;;;;;6280429;22;20155;-87
2022/05/25 01:55:53;;;;;;;5.67;2.17;;;13.80;99.90;;;;;;6279686;22;20630;-89
2022/05/25 01:58:21;;;;;;;3.83;1.93;;;13.80;99.90;;;;;;6280314;22;20151;-89
2022/05/25 02:00:55;;;;;;;6.03;2.50;;;13.80;99.90;;;;;;6280546;22;20436;-89
2022/05/25 02:06:18;;;;;;;4.97;1.90;;;13.60;99.90;;;;;;6307226;22;20172;-89
2022/05/25 02:09:09;;;;;;;6.47;2.40;;;13.50;99.90;;;;;;6280527;22;20154;-87
2022/05/25 02:11:44;;;;;;;6.07;2.03;;;13.50;99.90;;;;;;6280212;22;20571;-87
2022/05/25 02:14:40;;;;;;;7.43;2.27;;;13.50;99.90;;;;;;6280190;22;20228;-87
2022/05/25 02:17:15;;;;;;;5.10;2.00;;;13.60;99.90;;;;;;6282343;22;20163;-87
2022/05/25 02:20:05;;;;;;;5.33;2.20;;;13.60;99.90;;;;;;6282136;22;20161;-87
2022/05/25 02:22:34;;;;;;;7.77;2.10;;;13.70;99.90;;;;;;6281131;22;20174;-87
2022/05/25 02:25:08;;;;;;;4.30;1.90;;;13.70;99.90;;;;;;6281207;22;20158;-89
2022/05/25 02:27:49;;;;;;;5.53;2.03;;;13.60;99.90;;;;;;6282146;22;20209;-87
2022/05/25 02:30:20;;;;;;;6.43;2.10;;;13.50;99.90;;;;;;6282142;22;20147;-87
2022/05/25 02:32:56;;;;;;;5.70;2.07;;;13.40;99.90;;;;;;6281531;22;20150;-89
2022/05/25 02:35:24;;;;;;;6.53;1.97;;;13.30;99.90;;;;;;6281838;22;20609;-89
2022/05/25 02:37:52;;;;;;;7.27;2.70;;;13.30;99.90;;;;;;6281997;22;20150;-89
2022/05/25 02:40:18;;;;;;;9.27;2.33;;;13.40;99.90;;;;;;6282232;22;20146;-87
2022/05/25 02:42:44;;;;;;;4.90;2.20;;;13.30;99.90;;;;;;6282021;22;20218;-89
2022/05/25 02:45:13;;;;;;;8.53;2.63;;;13.20;99.90;;;;;;6281923;22;20157;-89
2022/05/25 02:47:39;;;;;;;10.60;2.63;;;13.20;99.90;;;;;;6281661;22;20142;-87
2022/05/25 02:50:06;;;;;;;5.60;2.27;;;13.20;99.90;;;;;;6281857;22;20244;-88
2022/05/25 02:52:32;;;;;;;2.57;2.37;;;13.20;99.90;;;;;;6282104;22;20146;-87
2022/05/25 02:54:58;;;;;;;4.30;2.57;;;13.10;99.90;;;;;;6281777;22;20522;-87
2022/05/25 02:57:23;;;;;;;7.60;2.60;;;13.20;99.90;;;;;;6281879;22;20640;-87
2022/05/25 02:59:49;;;;;;;6.23;2.67;;;13.10;99.90;;;;;;6281733;22;20579;-88
2022/05/25 03:02:15;;;;;;;9.20;2.97;;;13.20;99.90;;;;;;6281774;22;20234;-87
2022/05/25 03:04:41;;;;;;;3.63;2.57;;;13.20;99.90;;;;;;6281918;22;20147;-87
2022/05/25 03:07:07;;;;;;;7.07;2.87;;;13.20;99.90;;;;;;6281609;22;20236;-89
2022/05/25 03:09:37;;;;;;;9.80;3.13;;;13.10;99.90;;;;;;6281080;22;20151;-89
2022/05/25 03:12:07;;;;;;;6.57;3.03;;;13.00;99.90;;;;;;6281686;22;20161;-89
2022/05/25 03:14:34;;;;;;;5.53;3.20;;;13.00;99.90;;;;;;6281289;22;20178;-89
2022/05/25 03:17:10;;;;;;;6.10;3.23;;;13.00;99.90;;;;;;6281543;22;20154;-87
2022/05/25 03:19:36;;;;;;;10.13;3.43;;;13.00;99.90;;;;;;6281516;22;20181;-88
2022/05/25 03:22:02;;;;;;;7.73;3.00;;;13.00;99.90;;;;;;6281696;22;20160;-87
2022/05/25 03:24:28;;;;;;;7.03;2.93;;;13.10;99.90;;;;;;6281635;22;20170;-88
2022/05/25 03:26:53;;;;;;;5.80;3.13;;;13.10;99.90;;;;;;6281106;22;20146;-88
2022/05/25 03:29:20;;;;;;;7.70;3.20;;;13.00;99.90;;;;;;6281334;22;20478;-88
2022/05/25 03:31:46;;;;;;;8.03;3.30;;;13.10;99.90;;;;;;6281452;22;20189;-89
2022/05/25 03:34:12;;;;;;;6.70;3.17;;;13.00;99.90;;;;;;6281418;22;20139;-87
2022/05/25 03:36:38;;;;;;;6.37;3.83;;;13.10;99.90;;;;;;6281432;22;20153;-87
2022/05/25 03:39:04;;;;;;;4.80;2.83;;;13.10;99.90;;;;;;6281557;22;20153;-87
2022/05/25 03:41:29;;;;;;;7.47;2.93;;;13.10;99.90;;;;;;6281015;22;20180;-89
2022/05/25 03:43:55;;;;;;;8.33;3.47;;;13.00;99.90;;;;;;6281469;22;20234;-87
2022/05/25 03:46:20;;;;;;;5.47;3.03;;;13.00;99.90;;;;;;6281889;22;20645;-89
2022/05/25 03:48:46;;;;;;;7.70;2.83;;;12.90;99.90;;;;;;6281059;22;20146;-87
2022/05/25 03:51:12;;;;;;;7.07;2.90;;;12.90;99.90;;;;;;6281288;22;20571;-89
2022/05/25 03:53:38;;;;;;;4.10;2.97;;;12.90;99.90;;;;;;6281413;22;20191;-89
2022/05/25 03:56:05;;;;;;;9.17;3.20;;;12.80;99.90;;;;;;6281105;22;20196;-89
2022/05/25 03:58:31;;;;;;;9.20;3.10;;;12.80;99.90;;;;;;6280650;22;20154;-89
2022/05/25 04:00:57;;;;;;;7.37;3.00;;;12.90;99.90;;;;;;6281669;22;20173;-89
2022/05/25 04:03:23;;;;;;;7.30;2.67;;;12.90;99.90;;;;;;6281069;22;20154;-88
2022/05/25 04:05:48;;;;;;;5.67;2.37;;;12.90;99.90;;;;;;6281688;22;20149;-88
2022/05/25 04:08:14;;;;;;;7.00;2.90;;;12.90;99.90;;;;;;6280970;22;20142;-89
2022/05/25 04:10:40;;;;;;;4.97;3.03;;;12.90;99.90;;;;;;6281533;22;20444;-87
2022/05/25 04:13:06;;;;;;;6.87;3.00;;;13.00;99.90;;;;;;6280861;22;20182;-89
2022/05/25 04:15:33;;;;;;;6.97;2.90;;;13.00;99.90;;;;;;6280954;22;20681;-87
2022/05/25 04:17:59;;;;;;;5.77;3.00;;;13.10;99.90;;;;;;6281312;22;20180;-89
2022/05/25 04:20:28;;;;;;;6.83;2.90;;;13.10;99.90;;;;;;6280797;22;20149;-87
2022/05/25 04:22:53;;;;;;;4.73;2.63;;;13.10;99.90;;;;;;6280917;22;20207;-89
2022/05/25 04:25:22;;;;;;;5.97;2.63;;;13.00;99.90;;;;;;6280920;22;20161;-89
2022/05/25 04:27:51;;;;;;;3.07;2.73;;;12.90;99.90;;;;;;6281027;22;20158;-89
2022/05/25 04:30:20;;;;;;;7.10;2.57;;;13.00;99.90;;;;;;6280275;22;20150;-87
2022/05/25 04:32:46;;;;;;;6.50;2.57;;;12.90;99.90;;;;;;6281029;22;20146;-88
2022/05/25 04:35:13;;;;;;;10.90;3.13;;;13.00;99.90;;;;;;6280819;22;20190;-89
2022/05/25 04:37:54;;;;;;;4.13;2.40;;;13.00;99.90;;;;;;6280937;22;20226;-89
2022/05/25 04:40:28;;;;;;;8.03;2.33;;;13.10;99.90;;;;;;6280191;22;20145;-88
2022/05/25 04:42:56;;;;;;;5.67;2.23;;;12.90;99.90;;;;;;6280421;22;20178;-89
2022/05/25 04:45:22;;;;;;;3.60;2.40;;;12.90;99.90;;;;;;6280775;22;20146;-87
2022/05/25 04:47:48;;;;;;;7.27;2.67;;;12.90;99.90;;;;;;6281047;22;20150;-89
2022/05/25 04:50:18;;;;;;;3.73;2.20;;;12.90;99.90;;;;;;6280534;22;20154;-88
2022/05/25 04:52:43;;;;;;;4.17;2.83;;;12.90;99.90;;;;;;6280277;22;20153;-89
2022/05/25 04:57:19;;;;;;;7.00;2.47;;;12.90;99.90;;;;;;6280755;22;20177;-87
2022/05/25 04:57:55;;;;;;;5.97;2.37;;;13.00;99.90;;;;;;6307337;22;20602;-87
2022/05/25 05:00:21;;;;;;;4.73;2.40;;;13.10;99.90;;;;;;6280792;22;20146;-87
2022/05/25 05:02:47;;;;;;;4.43;2.40;;;13.20;99.90;;;;;;6280886;22;20154;-89
2022/05/25 05:05:14;;;;;;;8.73;2.60;;;13.20;99.90;;;;;;6280781;22;20594;-89
2022/05/25 05:07:40;;;;;;;9.20;2.47;;;13.10;99.90;;;;;;6280847;22;20176;-89
2022/05/25 05:10:06;;;;;;;6.23;2.37;;;13.10;99.90;;;;;;6280608;22;20599;-89
2022/05/25 05:12:32;;;;;;;5.03;2.73;;;13.10;99.90;;;;;;6280193;22;20182;-87
2022/05/25 05:14:58;;;;;;;5.87;2.47;;;13.10;99.90;;;;;;6280226;22;20265;-87
2022/05/25 05:17:24;;;;;;;5.73;2.40;;;13.20;99.90;;;;;;6281019;22;20142;-88
2022/05/25 05:19:50;;;;;;;4.87;2.20;;;13.20;99.90;;;;;;6280223;22;20153;-89
2022/05/25 05:22:17;;;;;;;6.13;2.83;;;13.20;99.90;;;;;;6280473;22;20233;-88
2022/05/25 05:24:43;;;;;;;4.43;2.40;;;13.10;99.90;;;;;;6280224;22;20472;-87
2022/05/25 05:27:08;;;;;;;6.57;2.13;;;13.10;99.90;;;;;;6280705;22;20151;-89
2022/05/25 05:29:34;;;;;;;8.30;2.40;;;13.10;99.90;;;;;;6280878;22;20748;-88
2022/05/25 05:32:00;;;;;;;10.00;2.47;;;13.10;99.90;;;;;;6280101;22;20594;-88
2022/05/25 05:34:28;;;;;;;6.83;2.90;;;13.10;99.90;;;;;;6280447;22;20575;-88
2022/05/25 05:37:06;;;;;;;5.60;2.47;;;13.10;99.90;;;;;;6281554;22;20154;-88
2022/05/25 05:39:36;;;;;;;6.17;2.63;;;13.10;99.90;;;;;;6282482;22;20566;-89
2022/05/25 05:42:09;;;;;;;5.43;2.67;;;13.20;99.90;;;;;;6281621;22;20166;-90
2022/05/25 05:44:45;;;;;;;9.50;2.50;;;13.20;99.90;;;;;;6281943;22;20520;-89
2022/05/25 05:47:14;;;;;;;5.37;2.50;;;13.30;99.90;;;;;;6283293;22;20143;-89
2022/05/25 05:49:41;;;;;;;6.70;3.00;;;13.20;99.90;;;;;;6281005;22;20149;-89
2022/05/25 05:52:08;;;;;;;3.37;2.40;;;13.20;99.90;;;;;;6282203;22;20150;-89
2022/05/25 06:26:34;;;;;;;7.13;2.90;;;13.80;99.90;;;;;;6247951;23;20169;-91
2022/05/25 06:29:01;;;;;;;7.47;2.40;;;13.80;99.90;;;;;;6221189;23;20175;-91
2022/05/25 06:31:32;;;;;;;6.40;2.67;;;13.80;99.90;;;;;;6221117;23;20148;-91
2022/05/25 06:33:58;;;;;;;6.10;2.47;;;13.80;99.90;;;;;;6221245;23;20148;-91
2022/05/25 06:36:26;;;;;;;7.20;2.90;;;13.70;99.90;;;;;;6220900;23;20188;-91
2022/05/25 06:38:52;;;;;;;9.13;2.83;;;13.90;99.90;;;;;;6220798;23;20608;-91
2022/05/25 06:41:18;;;;;;;10.30;2.40;;;14.10;99.90;;;;;;6221207;23;20149;-91
2022/05/25 06:43:44;;;;;;;6.17;2.50;;;14.20;99.90;;;;;;6220816;23;20232;-91
2022/05/25 06:46:12;;;;;;;7.47;2.90;;;14.40;99.90;;;;;;6221258;23;20228;-91
2022/05/25 06:48:38;;;;;;;8.87;2.70;;;14.50;99.90;;;;;;6220874;23;20147;-91
2022/05/25 06:51:16;;;;;;;6.63;2.60;;;14.50;99.90;;;;;;6220751;23;20501;-89
2022/05/25 06:53:44;;;;;;;4.57;2.73;;;14.50;99.90;;;;;;6220047;23;20180;-89
2022/05/25 06:56:09;;;;;;;5.47;2.50;;;14.50;99.90;;;;;;6220538;23;20194;-92
2022/05/25 06:58:36;;;;;;;5.70;2.57;;;14.50;99.90;;;;;;6220520;23;20199;-91
2022/05/25 07:01:03;;;;;;;10.30;3.10;;;14.70;99.90;;;;;;6217116;23;20154;-90
2022/05/25 07:03:29;;;;;;;7.50;2.60;;;14.80;99.90;;;;;;6220737;23;20160;-91
2022/05/25 07:05:55;;;;;;;6.67;2.37;;;14.80;99.90;;;;;;6220469;23;20223;-90
2022/05/25 07:08:20;;;;;;;7.10;2.73;;;14.70;99.90;;;;;;6220472;23;20153;-90
2022/05/25 07:10:46;;;;;;;6.50;2.43;;;14.60;99.90;;;;;;6220490;23;20575;-89
2022/05/25 07:13:13;;;;;;;6.00;2.67;;;14.70;99.90;;;;;;6239783;22;20531;-89
2022/05/25 07:15:39;;;;;;;9.30;2.03;;;14.70;99.90;;;;;;6251035;22;20225;-89
2022/05/25 07:18:05;;;;;;;7.63;2.07;;;14.70;99.90;;;;;;6250331;22;20144;-89
2022/05/25 07:20:31;;;;;;;8.77;2.67;;;14.80;99.90;;;;;;6250320;22;20149;-90
2022/05/25 07:22:57;;;;;;;6.17;2.10;;;15.00;99.90;;;;;;6248951;22;20153;-91
2022/05/25 07:25:22;;;;;;;5.97;2.17;;;15.10;99.90;;;;;;6250230;22;20213;-88
2022/05/25 07:27:48;;;;;;;3.67;1.93;;;15.20;99.90;;;;;;6250246;22;20164;-90
2022/05/25 07:30:16;;;;;;;6.47;1.93;;;15.40;99.90;;;;;;6250698;22;20159;-89
2022/05/25 07:32:43;;;;;;;5.97;2.03;;;15.50;99.90;;;;;;6249797;22;20599;-89
2022/05/25 07:35:11;;;;;;;2.53;1.73;;;15.60;99.90;;;;;;6249972;22;20186;-89
2022/05/25 07:37:39;;;;;;;8.27;2.10;;;15.40;99.90;;;;;;6249998;22;20158;-89
2022/05/25 07:40:10;;;;;;;5.27;1.93;;;15.40;99.90;;;;;;6250781;22;20152;-89
2022/05/25 07:42:37;;;;;;;5.73;1.77;;;15.40;99.90;;;;;;6250742;22;20602;-89
2022/05/25 07:45:04;;;;;;;3.13;1.20;;;15.50;99.90;;;;;;6250548;22;20224;-89
2022/05/25 07:47:32;;;;;;;5.50;1.70;;;15.70;99.90;;;;;;6250757;22;20154;-89
2022/05/25 07:50:00;;;;;;;3.53;1.90;;;15.90;99.90;;;;;;6250432;22;20148;-89
2022/05/25 07:52:30;;;;;;;5.07;1.70;;;16.20;99.90;;;;;;6250280;22;20148;-89
2022/05/25 07:54:57;;;;;;;6.70;1.53;;;16.50;99.90;;;;;;6249375;22;20189;-89
2022/05/25 07:57:23;;;;;;;7.57;2.00;;;16.60;99.90;;;;;;6250200;22;20540;-89
2022/05/25 07:59:49;;;;;;;4.63;1.80;;;16.60;99.90;;;;;;6249762;22;20146;-89
2022/05/25 08:07:57;;;;;;;8.90;1.70;;;16.20;99.90;;;;;;6277459;22;20146;-89
2022/05/25 08:10:25;;;;;;;5.20;1.83;;;16.10;99.90;;;;;;6251030;22;20158;-89
2022/05/25 08:12:57;;;;;;;8.27;1.47;;;16.20;99.90;;;;;;6250918;22;20170;-89
2022/05/25 08:15:25;;;;;;;4.80;1.93;;;16.10;99.90;;;;;;6250015;22;20187;-89
2022/05/25 08:17:50;;;;;;;2.87;1.50;;;16.00;99.90;;;;;;6249792;22;20177;-89
2022/05/25 08:20:19;;;;;;;3.00;1.63;;;15.90;99.90;;;;;;6249729;22;20591;-89
2022/05/25 08:22:45;;;;;;;5.53;1.80;;;15.90;99.90;;;;;;6249673;22;20149;-89
2022/05/25 08:25:12;;;;;;;8.23;1.73;;;16.10;99.90;;;;;;6249993;22;20253;-92
2022/05/25 08:27:39;;;;;;;6.67;1.53;;;16.30;99.90;;;;;;6251283;22;20229;-89
2022/05/25 08:30:25;;;;;;;5.33;1.87;;;16.20;99.90;;;;;;6250115;22;20177;-91
2022/05/25 08:32:50;;;;;;;4.17;1.50;;;16.20;99.90;;;;;;6249762;22;20157;-89
2022/05/25 08:35:17;;;;;;;4.80;1.50;;;16.40;99.90;;;;;;6249219;22;20178;-88
2022/05/25 08:37:43;;;;;;;5.03;1.57;;;16.60;99.90;;;;;;6249012;22;20142;-90
2022/05/25 08:40:12;;;;;;;4.23;1.43;;;16.70;99.90;;;;;;6250156;22;20163;-89
2022/05/25 08:42:50;;;;;;;7.57;1.90;;;16.70;99.90;;;;;;6249778;22;20204;-90
2022/05/25 08:45:17;;;;;;;3.13;1.20;;;16.70;99.90;;;;;;6249026;22;20153;-90
2022/05/25 09:07:49;;;;;;;4.67;1.80;;;16.90;99.90;;;;;;6338234;22;20200;-90
2022/05/25 09:10:16;;;;;;;3.03;1.10;;;17.00;99.90;;;;;;6310803;22;20170;-90
2022/05/25 09:12:48;;;;;;;2.90;0.90;;;17.10;99.90;;;;;;6296550;22;20169;-90
2022/05/25 09:15:30;;;;;;;3.07;0.87;;;17.20;99.90;;;;;;6279924;22;20189;-90
2022/05/25 09:18:05;;;;;;;2.53;0.63;;;17.40;99.90;;;;;;6280057;22;20154;-90
2022/05/25 09:20:35;;;;;;;3.50;0.90;;;17.50;99.90;;;;;;6278614;22;20152;-90
2022/05/25 09:23:01;;;;;;;3.67;0.90;;;17.70;99.90;;;;;;6280196;22;20534;-90
2022/05/25 09:25:27;;;;;;;3.37;1.00;;;17.70;99.90;;;;;;6279786;22;20153;-91
2022/05/25 09:38:14;;;;;;;4.67;1.13;;;18.00;99.00;;;;;;6314588;22;20207;-84
2022/05/25 09:40:44;;;;;;;4.50;0.70;;;18.10;99.10;;;;;;6310006;22;20534;-84
2022/05/25 09:43:14;;;;;;;4.00;0.73;;;18.30;98.40;;;;;;6310408;22;20155;-84
2022/05/25 09:45:47;;;;;;;1.87;0.50;;;18.30;97.90;;;;;;6310394;22;20149;-83
2022/05/25 09:48:26;;;;;;;1.63;0.80;;;18.30;97.90;;;;;;6310178;22;20480;-84
2022/05/25 09:50:55;;;;;;;2.60;0.60;;;18.40;97.60;;;;;;6310281;22;20153;-85
2022/05/25 09:53:23;;;;;;;1.40;0.60;;;18.60;97.90;;;;;;6309474;22;20151;-85
2022/05/25 09:55:59;;;;;;;4.27;0.60;;;18.60;96.90;;;;;;6337591;22;20248;-85
2022/05/25 09:58:25;;;;;;;4.27;1.10;;;18.60;97.30;;;;;;6310806;22;20149;-84
2022/05/25 10:00:58;;;;;;;3.27;0.60;;;18.50;96.30;;;;;;6336598;22;20187;-84
2022/05/25 10:03:36;;;;;;;2.37;0.63;;;18.60;96.60;;;;;;6309387;22;20147;-85
2022/05/25 10:06:23;;;;;;;0.83;0.50;;;18.60;96.50;;;;;;6310405;22;20161;-84
2022/05/25 10:09:10;;;;;;;2.70;0.60;;;18.70;96.40;;;;;;6310426;22;20225;-84
2022/05/25 10:12:00;;;;;;;1.47;0.50;;;18.90;95.80;;;;;;6309116;22;20236;-84
2022/05/25 10:14:39;;;;;;;0.67;0.50;;;18.90;95.30;;;;;;6286894;22;20161;-84
2022/05/25 10:17:14;;;;;;;2.20;0.93;;;19.00;95.30;;;;;;6278352;22;20165;-84
2022/05/25 10:19:48;;;;;;;3.47;0.80;;;19.10;94.80;;;;;;6279176;22;20139;-84
2022/05/25 10:22:29;;;;;;;4.63;1.03;;;19.10;94.90;;;;;;6279210;22;20164;-84
2022/05/25 10:25:13;;;;;;;2.47;0.60;;;19.20;95.00;;;;;;6277832;22;20601;-84
2022/05/25 10:27:42;;;;;;;2.57;0.60;;;19.10;94.50;;;;;;6278595;22;20214;-84
2022/05/25 10:39:14;;;;;;;5.90;0.80;;;19.10;93.90;;;;;;6308283;22;20173;-84
2022/05/25 10:41:43;;;;;;;3.73;0.77;;;18.90;94.20;;;;;;6280786;22;20452;-85
2022/05/25 10:44:20;;;;;;;2.97;0.90;;;19.20;94.40;;;;;;6280698;22;20154;-84
2022/05/25 10:46:53;;;;;;;2.47;0.80;;;19.50;93.50;;;;;;6279758;22;20161;-84
2022/05/25 10:49:34;;;;;;;6.40;1.00;;;19.50;93.90;;;;;;6281039;22;20588;-84
2022/05/25 10:52:32;;;;;;;2.63;0.73;;;19.60;94.10;;;;;;6281136;22;20487;-85
2022/05/25 10:54:58;;;;;;;3.90;0.90;;;19.60;93.30;;;;;;6279428;22;20259;-84
2022/05/25 10:57:36;;;;;;;2.93;0.60;;;19.50;93.60;;;;;;6279089;22;20151;-85
2022/05/25 11:00:07;;;;;;;1.83;0.50;;;19.30;93.70;;;;;;6281033;22;20156;-85
2022/05/25 11:02:53;;;;;;;6.20;1.73;;;19.30;93.60;;;;;;6280950;22;20229;-85
2022/05/25 11:05:23;;;;;;;2.70;0.60;;;19.30;93.10;;;;;;6281009;22;20539;-85
2022/05/25 11:07:55;;;;;;;2.97;0.50;;;19.40;92.80;;;;;;6308054;22;20150;-83
2022/05/25 11:10:41;;;;;;;2.87;0.90;;;19.40;92.70;;;;;;6280512;22;20148;-84
2022/05/25 11:13:18;;;;;;;5.03;1.00;;;19.30;92.80;;;;;;6280644;22;20632;-85
2022/05/25 11:15:55;;;;;;;1.40;0.53;;;19.50;92.90;;;;;;6280332;22;20238;-85
2022/05/25 11:18:58;;;;;;;1.83;0.50;;;19.90;92.60;;;;;;6280755;22;20160;-84
2022/05/25 11:21:51;;;;;;;2.00;0.80;;;20.20;92.40;;;;;;6280537;22;20166;-85
2022/05/25 11:24:46;;;;;;;2.80;0.87;;;20.10;92.60;;;;;;6280624;22;20155;-85
2022/05/25 11:27:39;;;;;;;5.50;0.90;;;19.70;93.00;;;;;;6280430;22;20613;-85
2022/05/25 11:30:08;;;;;;;3.23;0.60;;;19.50;93.00;;;;;;6279978;22;20643;-84
2022/05/25 11:32:42;;;;;;;1.40;0.77;;;19.50;93.30;;;;;;6280706;22;20166;-84
2022/05/25 11:35:39;;;;;;;2.67;0.50;;;19.70;93.30;;;;;;6280311;22;20194;-84
2022/05/25 11:38:49;;;;;;;2.37;0.77;;;19.80;92.30;;;;;;6280754;22;20513;-84
2022/05/25 11:41:40;;;;;;;4.00;0.97;;;20.00;92.10;;;;;;6280086;22;20150;-85
2022/05/25 11:44:41;;;;;;;2.10;0.50;;;19.90;92.20;;;;;;6279645;22;20160;-85
2022/05/25 11:47:27;;;;;;;2.47;0.70;;;20.60;92.00;;;;;;6307647;22;20135;-85
2022/05/25 11:50:11;;;;;;;0.83;0.40;;;20.60;91.10;;;;;;6280630;22;20283;-85
2022/05/25 11:53:04;;;;;;;2.17;0.50;;;20.40;91.10;;;;;;6279763;22;20157;-85
2022/05/25 11:55:33;;;;;;;5.17;0.87;;;20.20;91.30;;;;;;6279863;22;20642;-85
2022/05/25 11:58:20;;;;;;;2.07;0.80;;;20.10;91.30;;;;;;6280402;22;20154;-85
2022/05/25 12:01:19;;;;;;;1.57;0.67;;;19.90;91.60;;;;;;6280434;22;20164;-84
2022/05/25 12:03:59;;;;;;;1.33;0.50;;;20.10;92.00;;;;;;6307826;22;20140;-85
2022/05/25 12:06:49;;;;;;;2.00;0.60;;;20.60;91.40;;;;;;6280462;22;20535;-84
2022/05/25 12:09:41;;;;;;;2.00;0.90;;;20.80;91.40;;;;;;6280507;22;20244;-84
2022/05/25 12:12:15;;;;;;;2.80;0.53;;;21.60;90.50;;;;;;6279393;22;20615;-84
2022/05/25 12:15:09;;;;;;;5.47;0.77;;;21.70;90.30;;;;;;6280073;22;20163;-84
2022/05/25 12:17:53;;;;;;;2.87;0.73;;;21.70;89.80;;;;;;6280647;22;20150;-85
2022/05/25 12:20:32;;;;;;;1.93;0.50;;;22.50;89.40;;;;;;6279825;22;20154;-85
2022/05/25 12:23:01;;;;;;;2.53;0.70;;;23.90;85.00;;;;;;6306001;22;20815;-85
2022/05/25 12:25:27;;;;;;;4.37;0.70;;;25.20;81.00;;;;;;6279594;22;20155;-85
2022/05/25 12:27:57;;;;;;;2.30;0.50;;;25.40;79.70;;;;;;6279616;22;20157;-85
2022/05/25 12:30:39;;;;;;;3.80;0.50;;;25.70;78.30;;;;;;6279955;22;20195;-85
2022/05/25 12:33:11;;;;;;;1.53;0.60;;;26.30;75.40;;;;;;6279777;22;20218;-85
2022/05/25 12:35:39;;;;;;;0.83;0.40;;;26.40;75.50;;;;;;6279244;22;20185;-85
2022/05/25 12:38:08;;;;;;;2.33;0.90;;;25.80;75.10;;;;;;6280009;22;20163;-85
2022/05/25 12:40:43;;;;;;;2.53;0.70;;;24.10;77.50;;;;;;6279385;22;20142;-85
2022/05/25 12:43:40;;;;;;;3.43;0.70;;;22.80;79.20;;;;;;6307018;22;20191;-85
2022/05/25 12:49:00;;;;;;;3.80;0.87;;;21.40;81.70;;;;;;6307010;22;20214;-84
2022/05/25 12:51:39;;;;;;;3.40;0.70;;;21.60;82.20;;;;;;6279646;22;20192;-84
2022/05/25 12:54:30;;;;;;;2.90;0.60;;;21.90;83.00;;;;;;6279952;22;20156;-84
2022/05/25 12:56:57;;;;;;;3.90;0.83;;;21.90;82.50;;;;;;6306177;22;20716;-85
2022/05/25 12:59:39;;;;;;;3.10;0.77;;;21.50;83.80;;;;;;6279433;22;20177;-85
2022/05/25 13:02:21;;;;;;;4.10;1.00;;;20.90;84.60;;;;;;6279269;22;20153;-84
2022/05/25 13:04:55;;;;;;;3.27;0.67;;;20.90;85.70;;;;;;6279635;22;20655;-84
2022/05/25 13:07:39;;;;;;;2.83;0.60;;;21.10;85.00;;;;;;6279640;22;20216;-84
2022/05/25 13:10:32;;;;;;;3.00;0.70;;;21.60;84.40;;;;;;6279151;22;20571;-84
2022/05/25 13:13:17;;;;;;;5.27;1.20;;;22.50;83.20;;;;;;6279548;22;20626;-85
2022/05/25 13:15:44;;;;;;;2.93;0.70;;;23.40;81.20;;;;;;6306244;22;20181;-84
2022/05/25 13:18:50;;;;;;;3.63;0.57;;;23.70;79.70;;;;;;6279070;22;20149;-83
2022/05/25 13:21:37;;;;;;;7.03;1.33;;;23.70;79.20;;;;;;6279042;22;20153;-83
2022/05/25 13:24:26;;;;;;;5.13;1.37;;;23.10;80.40;;;;;;6279353;22;20146;-83
2022/05/25 13:27:06;;;;;;;2.77;0.90;;;22.20;82.10;;;;;;6278654;22;20157;-83
2022/05/25 13:30:09;;;;;;;2.87;0.87;;;22.30;83.20;;;;;;6306667;22;20136;-83
2022/05/25 13:32:46;;;;;;;4.23;1.00;;;22.40;83.10;;;;;;6306956;22;20141;-83
2022/05/25 13:35:40;;;;;;;3.83;0.90;;;22.20;82.80;;;;;;6278511;22;20193;-84
2022/05/25 13:38:15;;;;;;;2.80;0.97;;;22.40;82.10;;;;;;6258788;22;20197;-83
2022/05/25 13:40:47;;;;;;;3.63;0.67;;;23.00;82.10;;;;;;6278955;22;20150;-83
2022/05/25 13:43:18;;;;;;;1.40;0.70;;;23.70;79.80;;;;;;6279319;22;20150;-83
2022/05/25 13:45:46;;;;;;;3.57;0.80;;;23.00;80.10;;;;;;6279276;22;20228;-84
2022/05/25 13:48:14;;;;;;;2.50;0.50;;;22.60;80.00;;;;;;6279501;22;20154;-83
2022/05/25 13:50:43;;;;;;;3.43;0.90;;;22.40;81.30;;;;;;6279429;22;20147;-83
2022/05/25 13:53:13;;;;;;;2.83;0.63;;;22.30;82.40;;;;;;6279885;22;20154;-82
2022/05/25 13:55:41;;;;;;;2.83;0.87;;;22.10;82.50;;;;;;6279203;22;20497;-84
2022/05/25 13:58:15;;;;;;;2.47;0.70;;;21.50;83.50;;;;;;6279054;22;20157;-84
2022/05/25 14:00:48;;;;;;;3.07;0.70;;;21.30;84.90;;;;;;6279387;22;20158;-83
2022/05/25 14:03:16;;;;;;;3.27;0.90;;;21.00;85.60;;;;;;6279541;22;20157;-84
2022/05/25 14:05:45;;;;;;;4.57;0.97;;;20.80;86.20;;;;;;6279015;22;20152;-83
2022/05/25 14:11:22;;;;;;;4.87;0.80;;;20.10;88.80;;;;;;6307632;22;20205;-84
2022/05/25 14:13:48;;;;;;;2.23;0.80;;;19.90;89.10;;;;;;6281626;22;20610;-84
2022/05/25 14:16:21;;;;;;;2.23;0.70;;;20.10;89.60;;;;;;6281376;22;20190;-84
2022/05/25 14:19:05;;;;;;;2.30;0.93;;;20.30;87.70;;;;;;6281551;22;20151;-83
2022/05/25 14:21:41;;;;;;;4.43;1.33;;;20.40;86.70;;;;;;6308508;22;20471;-84
2022/05/25 14:24:13;;;;;;;1.87;0.63;;;20.70;86.60;;;;;;6281600;22;20151;-83
2022/05/25 14:26:45;;;;;;;2.43;0.80;;;20.80;86.20;;;;;;6308235;22;20139;-83
2022/05/25 14:29:13;;;;;;;3.67;1.10;;;20.80;86.70;;;;;;6281480;22;20156;-84
2022/05/25 14:31:45;;;;;;;3.40;0.70;;;21.20;86.50;;;;;;6280883;22;20180;-83
2022/05/25 14:34:14;;;;;;;5.37;0.97;;;21.30;86.00;;;;;;6280896;22;20559;-83
2022/05/25 14:36:45;;;;;;;3.03;0.83;;;21.30;86.00;;;;;;6280339;22;20323;-82
2022/05/25 14:39:27;;;;;;;5.07;0.90;;;20.90;87.40;;;;;;6280872;22;20577;-83